Lenorah, Texas
Current Conditions -  °F | °C
As of 12:55 AM on Thursday 27 Nov 2014 (Local Time) from KBPG Reporting Station
Clear Clear  
Wind Chill:   Ceiling: Unl
Heat Index:   Visibility: 10mi
Dew Point:   Wind: 9mph
Humidity: 58%   Direction: 70°ENE
Pressure: 30.41"   Gusts: NA
Location:  32.3°N, 101.88°W
Report Text: KBPG 270655Z AUTO 07008KT 10SM CLR 08/00 A3041 RMK AO2 T00771001
Loading
Personal Weather Stations






























Interactive Weather Map New forecast layout! Learn more

10-Day Weather Forecast

Advertisements
Track Severe Weather on mobile